createdAt,value
2022-09-05T00:01:03.356Z,100.00
2022-09-05T00:03:19.630Z,100.00
2022-09-05T00:06:03.054Z,100.00
2022-09-05T00:08:13.431Z,100.00
2022-09-05T00:10:23.513Z,100.00
2022-09-05T00:12:28.403Z,100.00
2022-09-05T00:15:14.771Z,100.00
2022-09-05T00:17:34.265Z,100.00
2022-09-05T00:24:20.721Z,100.00
2022-09-05T00:24:24.987Z,100.00
2022-09-05T00:25:30.396Z,100.00
2022-09-05T00:27:40.710Z,100.00
2022-09-05T00:31:08.223Z,100.00
2022-09-05T00:32:43.853Z,100.00
2022-09-05T00:35:02.232Z,100.00
2022-09-05T00:37:06.303Z,100.00
2022-09-05T00:39:14.448Z,100.00
2022-09-05T00:41:19.106Z,100.00
2022-09-05T00:43:24.606Z,100.00
2022-09-05T00:45:36.040Z,100.00
2022-09-05T00:47:48.327Z,100.00
2022-09-05T00:49:59.908Z,100.00
2022-09-05T00:52:08.000Z,100.00
2022-09-05T00:54:40.253Z,100.00
2022-09-05T00:57:06.914Z,100.00
2022-09-05T00:59:58.620Z,100.00
2022-09-05T01:02:07.880Z,100.00
2022-09-05T01:04:24.649Z,100.00
2022-09-05T01:06:41.770Z,100.00
2022-09-05T01:09:09.748Z,100.00
2022-09-05T01:11:19.060Z,100.00
2022-09-05T01:13:36.901Z,100.00
2022-09-05T01:15:51.772Z,100.00
2022-09-05T01:18:14.441Z,100.00
2022-09-05T01:20:40.383Z,100.00
2022-09-05T01:23:06.487Z,100.00
2022-09-05T01:25:28.134Z,100.00
2022-09-05T01:29:13.054Z,100.00
2022-09-05T01:30:23.316Z,100.00
2022-09-05T01:32:42.801Z,100.00
2022-09-05T01:34:57.871Z,100.00
2022-09-05T01:37:08.467Z,100.00
2022-09-05T01:40:15.261Z,100.00
2022-09-05T01:42:29.287Z,100.00
2022-09-05T01:44:49.205Z,100.00
2022-09-05T01:47:00.019Z,100.00
2022-09-05T01:49:14.720Z,100.00
2022-09-05T01:51:31.704Z,100.00
2022-09-05T01:53:43.490Z,100.00
2022-09-05T01:56:12.008Z,100.00
2022-09-05T01:58:18.002Z,100.00
2022-09-05T02:00:25.297Z,100.00
2022-09-05T02:02:50.844Z,100.00
2022-09-05T02:05:09.715Z,100.00
2022-09-05T02:07:31.049Z,100.00
2022-09-05T02:09:42.863Z,100.00
2022-09-05T02:11:52.129Z,100.00
2022-09-05T02:14:00.702Z,100.00
2022-09-05T02:16:13.399Z,100.00
2022-09-05T02:18:21.587Z,100.00
2022-09-05T02:20:31.730Z,100.00
2022-09-05T02:22:43.121Z,100.00
2022-09-05T02:24:49.014Z,100.00
2022-09-05T02:27:12.495Z,100.00
2022-09-05T02:29:40.192Z,100.00
2022-09-05T02:31:48.169Z,100.00
2022-09-05T02:34:02.127Z,100.00
2022-09-05T02:36:11.359Z,100.00
2022-09-05T02:40:23.310Z,100.00
2022-09-05T02:45:13.700Z,100.00
2022-09-05T02:45:19.933Z,100.00
2022-09-05T02:45:57.267Z,100.00
2022-09-05T02:48:15.775Z,100.00
2022-09-05T02:54:42.880Z,100.00
2022-09-05T02:57:37.800Z,100.00
2022-09-05T02:57:46.181Z,100.00
2022-09-05T02:58:16.742Z,100.00
2022-09-05T03:00:22.502Z,100.00
2022-09-05T03:02:32.414Z,100.00
2022-09-05T03:04:44.104Z,100.00
2022-09-05T03:07:05.997Z,100.00
2022-09-05T03:09:25.037Z,100.00
2022-09-05T03:12:28.873Z,100.00
2022-09-05T03:15:23.007Z,100.00
2022-09-05T03:17:53.418Z,100.00
2022-09-05T03:20:39.305Z,100.00
2022-09-05T03:23:23.302Z,100.00
2022-09-05T03:25:59.052Z,100.00
2022-09-05T03:28:35.459Z,100.00
2022-09-05T03:30:50.054Z,100.00
2022-09-05T03:33:24.924Z,100.00
2022-09-05T03:36:16.543Z,100.00
2022-09-05T03:38:55.527Z,100.00
2022-09-05T03:41:11.448Z,100.00
2022-09-05T03:43:41.433Z,100.00
2022-09-05T03:46:00.853Z,100.00
2022-09-05T03:48:48.345Z,100.00
2022-09-05T03:57:07.577Z,100.00
2022-09-05T03:57:23.589Z,100.00
2022-09-05T03:57:25.814Z,100.00
2022-09-05T03:58:57.445Z,100.00
2022-09-05T04:01:17.582Z,100.00
2022-09-05T04:08:09.579Z,100.00
2022-09-05T04:08:19.116Z,100.00
2022-09-05T04:08:46.458Z,100.00
2022-09-05T04:10:56.466Z,100.00
2022-09-05T04:13:05.210Z,100.00
2022-09-05T04:15:17.451Z,100.00
2022-09-05T04:17:28.640Z,100.00
2022-09-05T04:19:36.383Z,100.00
2022-09-05T04:21:47.800Z,100.00
2022-09-05T04:24:03.087Z,100.00
2022-09-05T04:26:21.519Z,100.00
2022-09-05T04:28:48.635Z,100.00
2022-09-05T04:31:03.921Z,100.00
2022-09-05T04:33:16.509Z,100.00
2022-09-05T04:35:38.986Z,100.00
2022-09-05T04:37:55.245Z,100.00
2022-09-05T04:39:58.193Z,100.00
2022-09-05T04:42:14.487Z,100.00
2022-09-05T04:44:20.387Z,100.00
2022-09-05T04:46:27.241Z,100.00
2022-09-05T04:48:49.444Z,100.00
2022-09-05T04:51:11.625Z,100.00
2022-09-05T04:53:27.906Z,100.00
2022-09-05T04:55:33.379Z,100.00
2022-09-05T04:57:41.599Z,100.00
2022-09-05T05:05:08.987Z,100.00
2022-09-05T05:06:02.478Z,100.00
2022-09-05T05:06:11.399Z,100.00
2022-09-05T05:07:11.070Z,100.00
2022-09-05T05:09:21.735Z,100.00
2022-09-05T05:17:55.596Z,100.00
2022-09-05T05:18:00.115Z,100.00
2022-09-05T05:18:11.491Z,100.00
2022-09-05T05:19:17.011Z,100.00
2022-09-05T05:21:26.535Z,100.00
2022-09-05T05:23:37.117Z,100.00
2022-09-05T05:25:49.002Z,100.00
2022-09-05T05:28:08.919Z,100.00
2022-09-05T05:30:27.449Z,100.00
2022-09-05T05:32:45.571Z,100.00
2022-09-05T05:34:54.255Z,100.00
2022-09-05T05:37:07.004Z,100.00
2022-09-05T05:39:14.763Z,100.00
2022-09-05T05:41:25.338Z,100.00
2022-09-05T05:43:37.677Z,100.00
2022-09-05T05:45:40.483Z,100.00
2022-09-05T05:47:45.720Z,100.00
2022-09-05T05:50:05.556Z,100.00
2022-09-05T05:52:54.187Z,100.00
2022-09-05T05:55:08.093Z,100.00
2022-09-05T05:57:41.594Z,100.00
2022-09-05T06:00:01.871Z,100.00
2022-09-05T06:02:46.673Z,100.00
2022-09-05T06:05:21.096Z,100.00
2022-09-05T06:07:45.064Z,100.00
2022-09-05T06:14:51.799Z,100.00
2022-09-05T06:15:08.996Z,100.00
2022-09-05T06:16:41.249Z,100.00
2022-09-05T06:19:18.796Z,100.00
2022-09-05T06:22:06.353Z,100.00
2022-09-05T06:24:49.843Z,100.00
2022-09-05T06:27:13.357Z,100.00
2022-09-05T06:29:34.268Z,100.00
2022-09-05T06:31:59.118Z,100.00
2022-09-05T06:34:32.998Z,100.00
2022-09-05T06:36:53.111Z,100.00
2022-09-05T06:39:06.817Z,100.00
2022-09-05T06:41:26.685Z,100.00
2022-09-05T06:43:45.235Z,100.00
2022-09-05T06:46:15.736Z,100.00
2022-09-05T06:49:29.811Z,100.00
2022-09-05T06:51:34.679Z,100.00
2022-09-05T06:54:03.533Z,100.00
2022-09-05T06:56:44.690Z,98.31
2022-09-05T06:59:26.674Z,97.41
2022-09-05T07:01:53.842Z,97.78
2022-09-05T07:05:14.815Z,96.47
2022-09-05T07:07:06.470Z,97.46
2022-09-05T07:09:23.345Z,97.79
2022-09-05T07:11:41.964Z,96.87
2022-09-05T07:13:55.838Z,93.50
2022-09-05T07:16:06.852Z,90.44
2022-09-05T07:18:22.511Z,90.55
2022-09-05T07:20:34.094Z,89.43
2022-09-05T07:23:20.329Z,89.24
2022-09-05T07:25:37.605Z,87.13
2022-09-05T07:28:26.399Z,86.60
2022-09-05T07:30:08.703Z,86.36
2022-09-05T07:32:22.425Z,85.77
2022-09-05T07:34:30.560Z,83.42
2022-09-05T07:36:39.550Z,81.36
2022-09-05T07:38:52.386Z,82.57
2022-09-05T07:41:04.866Z,81.01
2022-09-05T07:43:10.823Z,80.42
2022-09-05T07:45:21.915Z,80.34
2022-09-05T07:47:28.996Z,80.38
2022-09-05T07:49:36.209Z,80.29
2022-09-05T07:56:49.543Z,76.38
2022-09-05T07:56:59.518Z,75.57
2022-09-05T07:57:22.229Z,75.42
2022-09-05T07:59:15.587Z,73.47
2022-09-05T08:01:22.370Z,66.27
2022-09-05T08:03:29.132Z,60.60
2022-09-05T08:05:42.296Z,59.24
2022-09-05T08:07:51.653Z,55.77
2022-09-05T08:10:08.613Z,56.30
2022-09-05T08:12:17.390Z,59.95
2022-09-05T08:14:46.096Z,60.69
2022-09-05T08:16:49.170Z,61.79
2022-09-05T08:19:01.971Z,60.77
2022-09-05T08:21:11.193Z,57.33
2022-09-05T08:23:25.642Z,58.51
2022-09-05T08:25:48.365Z,60.16
2022-09-05T08:28:07.466Z,61.69
2022-09-05T08:30:27.155Z,63.25
2022-09-05T08:32:41.474Z,68.45
2022-09-05T08:34:50.132Z,68.87
2022-09-05T08:36:56.884Z,63.40
2022-09-05T08:39:02.083Z,63.30
2022-09-05T08:41:13.933Z,62.23
2022-09-05T08:46:35.772Z,61.32
2022-09-05T08:46:39.568Z,56.68
2022-09-05T08:48:38.491Z,57.69
2022-09-05T08:50:56.984Z,55.57
2022-09-05T08:53:35.270Z,52.79
2022-09-05T08:55:45.490Z,51.61
2022-09-05T08:58:26.900Z,51.24
2022-09-05T09:00:35.975Z,51.89
2022-09-05T09:03:04.437Z,49.12
2022-09-05T09:05:19.400Z,45.64
2022-09-05T09:07:50.826Z,47.88
2022-09-05T09:10:04.055Z,50.30
2022-09-05T09:12:15.523Z,44.78
2022-09-05T09:14:33.711Z,43.98
2022-09-05T09:16:41.809Z,45.62
2022-09-05T09:19:04.704Z,45.98
2022-09-05T09:21:25.151Z,46.81
2022-09-05T09:23:46.220Z,45.72
2022-09-05T09:25:55.194Z,45.90
2022-09-05T09:28:50.277Z,41.09
2022-09-05T09:30:30.777Z,42.63
2022-09-05T09:32:41.478Z,42.09
2022-09-05T09:34:55.571Z,35.82
2022-09-05T09:37:16.803Z,35.27
2022-09-05T09:39:38.521Z,36.93
2022-09-05T09:41:59.613Z,34.77
2022-09-05T09:44:23.111Z,40.12
